sensor_id;sensor_type;location;lat;lon;timestamp;P1;durP1;ratioP1;P2;durP2;ratioP2
21661;SDS011;10992;48.170;8.596;2023-02-07T00:01:22;11.50;;;6.25;;
21661;SDS011;10992;48.170;8.596;2023-02-07T00:03:50;9.90;;;6.50;;
21661;SDS011;10992;48.170;8.596;2023-02-07T00:06:28;7.75;;;6.05;;
21661;SDS011;10992;48.170;8.596;2023-02-07T00:08:59;9.60;;;6.18;;
21661;SDS011;10992;48.170;8.596;2023-02-07T00:11:31;8.70;;;6.25;;
21661;SDS011;10992;48.170;8.596;2023-02-07T00:13:58;10.77;;;6.90;;
21661;SDS011;10992;48.170;8.596;2023-02-07T00:16:26;8.13;;;6.90;;
21661;SDS011;10992;48.170;8.596;2023-02-07T00:18:53;10.90;;;7.40;;
21661;SDS011;10992;48.170;8.596;2023-02-07T00:21:22;8.73;;;6.53;;
21661;SDS011;10992;48.170;8.596;2023-02-07T00:23:50;9.70;;;6.80;;
21661;SDS011;10992;48.170;8.596;2023-02-07T00:26:19;11.48;;;6.95;;
21661;SDS011;10992;48.170;8.596;2023-02-07T00:28:48;10.82;;;7.18;;
21661;SDS011;10992;48.170;8.596;2023-02-07T00:31:21;12.00;;;7.90;;
21661;SDS011;10992;48.170;8.596;2023-02-07T00:33:52;12.07;;;6.93;;
21661;SDS011;10992;48.170;8.596;2023-02-07T00:36:22;11.68;;;7.53;;
21661;SDS011;10992;48.170;8.596;2023-02-07T00:38:50;14.75;;;7.85;;
21661;SDS011;10992;48.170;8.596;2023-02-07T00:41:25;10.95;;;8.13;;
21661;SDS011;10992;48.170;8.596;2023-02-07T00:43:53;12.05;;;8.25;;
21661;SDS011;10992;48.170;8.596;2023-02-07T00:46:21;12.32;;;8.48;;
21661;SDS011;10992;48.170;8.596;2023-02-07T00:48:48;13.90;;;9.45;;
21661;SDS011;10992;48.170;8.596;2023-02-07T00:51:16;14.13;;;8.95;;
21661;SDS011;10992;48.170;8.596;2023-02-07T00:53:43;15.95;;;9.60;;
21661;SDS011;10992;48.170;8.596;2023-02-07T00:56:11;13.05;;;8.43;;
21661;SDS011;10992;48.170;8.596;2023-02-07T00:58:38;11.73;;;8.48;;
21661;SDS011;10992;48.170;8.596;2023-02-07T01:01:05;11.18;;;8.18;;
21661;SDS011;10992;48.170;8.596;2023-02-07T01:03:32;12.55;;;8.90;;
21661;SDS011;10992;48.170;8.596;2023-02-07T01:05:59;10.02;;;7.20;;
21661;SDS011;10992;48.170;8.596;2023-02-07T01:08:26;9.15;;;6.88;;
21661;SDS011;10992;48.170;8.596;2023-02-07T01:10:53;10.15;;;7.43;;
21661;SDS011;10992;48.170;8.596;2023-02-07T01:13:20;9.43;;;7.07;;
21661;SDS011;10992;48.170;8.596;2023-02-07T01:15:47;12.48;;;7.57;;
21661;SDS011;10992;48.170;8.596;2023-02-07T01:18:15;12.18;;;8.32;;
21661;SDS011;10992;48.170;8.596;2023-02-07T01:20:42;12.00;;;7.72;;
21661;SDS011;10992;48.170;8.596;2023-02-07T01:23:09;10.43;;;7.57;;
21661;SDS011;10992;48.170;8.596;2023-02-07T01:25:37;10.27;;;7.75;;
21661;SDS011;10992;48.170;8.596;2023-02-07T01:28:05;11.18;;;7.43;;
21661;SDS011;10992;48.170;8.596;2023-02-07T01:30:32;14.20;;;8.55;;
21661;SDS011;10992;48.170;8.596;2023-02-07T01:32:59;12.15;;;8.90;;
21661;SDS011;10992;48.170;8.596;2023-02-07T01:35:26;12.40;;;8.43;;
21661;SDS011;10992;48.170;8.596;2023-02-07T01:37:53;12.88;;;8.82;;
21661;SDS011;10992;48.170;8.596;2023-02-07T01:40:20;15.38;;;8.90;;
21661;SDS011;10992;48.170;8.596;2023-02-07T01:42:48;11.98;;;8.05;;
21661;SDS011;10992;48.170;8.596;2023-02-07T01:48:13;15.20;;;9.75;;
21661;SDS011;10992;48.170;8.596;2023-02-07T01:50:46;14.55;;;9.10;;
21661;SDS011;10992;48.170;8.596;2023-02-07T01:53:15;15.50;;;10.13;;
21661;SDS011;10992;48.170;8.596;2023-02-07T01:55:44;16.85;;;9.98;;
21661;SDS011;10992;48.170;8.596;2023-02-07T01:58:13;13.80;;;8.98;;
21661;SDS011;10992;48.170;8.596;2023-02-07T02:00:41;12.43;;;9.13;;
21661;SDS011;10992;48.170;8.596;2023-02-07T02:03:09;12.68;;;9.00;;
21661;SDS011;10992;48.170;8.596;2023-02-07T02:05:36;12.88;;;9.32;;
21661;SDS011;10992;48.170;8.596;2023-02-07T02:08:05;14.88;;;10.20;;
21661;SDS011;10992;48.170;8.596;2023-02-07T02:10:47;15.20;;;10.35;;
21661;SDS011;10992;48.170;8.596;2023-02-07T02:16:20;14.90;;;10.20;;
21661;SDS011;10992;48.170;8.596;2023-02-07T02:22:07;22.35;;;13.18;;
21661;SDS011;10992;48.170;8.596;2023-02-07T02:25:02;26.40;;;15.25;;
21661;SDS011;10992;48.170;8.596;2023-02-07T02:33:13;33.13;;;20.90;;
21661;SDS011;10992;48.170;8.596;2023-02-07T02:39:46;35.78;;;21.75;;
21661;SDS011;10992;48.170;8.596;2023-02-07T02:41:57;39.47;;;23.33;;
21661;SDS011;10992;48.170;8.596;2023-02-07T02:47:23;40.28;;;24.38;;
21661;SDS011;10992;48.170;8.596;2023-02-07T02:49:54;39.58;;;22.05;;
21661;SDS011;10992;48.170;8.596;2023-02-07T02:52:22;43.60;;;24.35;;
21661;SDS011;10992;48.170;8.596;2023-02-07T02:55:05;32.65;;;18.85;;
21661;SDS011;10992;48.170;8.596;2023-02-07T03:11:27;37.72;;;19.55;;
21661;SDS011;10992;48.170;8.596;2023-02-07T03:13:59;30.73;;;18.60;;
21661;SDS011;10992;48.170;8.596;2023-02-07T03:21:41;30.52;;;19.45;;
21661;SDS011;10992;48.170;8.596;2023-02-07T03:24:17;31.83;;;18.85;;
21661;SDS011;10992;48.170;8.596;2023-02-07T03:26:47;35.72;;;20.88;;
21661;SDS011;10992;48.170;8.596;2023-02-07T03:29:18;34.50;;;20.08;;
21661;SDS011;10992;48.170;8.596;2023-02-07T03:31:47;28.70;;;18.33;;
21661;SDS011;10992;48.170;8.596;2023-02-07T03:34:21;34.53;;;19.38;;
21661;SDS011;10992;48.170;8.596;2023-02-07T03:39:28;30.70;;;17.63;;
21661;SDS011;10992;48.170;8.596;2023-02-07T03:41:56;29.50;;;17.15;;
21661;SDS011;10992;48.170;8.596;2023-02-07T03:44:26;28.25;;;15.82;;
21661;SDS011;10992;48.170;8.596;2023-02-07T03:46:54;24.05;;;15.32;;
21661;SDS011;10992;48.170;8.596;2023-02-07T03:49:22;27.35;;;15.52;;
21661;SDS011;10992;48.170;8.596;2023-02-07T03:51:49;20.67;;;13.98;;
21661;SDS011;10992;48.170;8.596;2023-02-07T03:54:17;23.80;;;15.15;;
21661;SDS011;10992;48.170;8.596;2023-02-07T03:56:44;22.70;;;14.35;;
21661;SDS011;10992;48.170;8.596;2023-02-07T03:59:11;22.60;;;14.70;;
21661;SDS011;10992;48.170;8.596;2023-02-07T04:01:38;21.85;;;13.90;;
21661;SDS011;10992;48.170;8.596;2023-02-07T04:04:08;27.73;;;15.43;;
21661;SDS011;10992;48.170;8.596;2023-02-07T04:06:36;24.25;;;15.63;;
21661;SDS011;10992;48.170;8.596;2023-02-07T04:09:04;24.55;;;15.25;;
21661;SDS011;10992;48.170;8.596;2023-02-07T04:11:31;22.10;;;15.07;;
21661;SDS011;10992;48.170;8.596;2023-02-07T04:13:58;22.55;;;14.63;;
21661;SDS011;10992;48.170;8.596;2023-02-07T04:16:24;23.25;;;15.70;;
21661;SDS011;10992;48.170;8.596;2023-02-07T04:18:51;24.42;;;15.27;;
21661;SDS011;10992;48.170;8.596;2023-02-07T04:21:18;20.55;;;14.50;;
21661;SDS011;10992;48.170;8.596;2023-02-07T04:23:45;22.30;;;14.90;;
21661;SDS011;10992;48.170;8.596;2023-02-07T04:26:13;22.23;;;14.75;;
21661;SDS011;10992;48.170;8.596;2023-02-07T04:28:40;21.00;;;14.23;;
21661;SDS011;10992;48.170;8.596;2023-02-07T04:31:09;21.50;;;14.20;;
21661;SDS011;10992;48.170;8.596;2023-02-07T04:33:36;22.15;;;15.00;;
21661;SDS011;10992;48.170;8.596;2023-02-07T04:36:03;23.15;;;14.98;;
21661;SDS011;10992;48.170;8.596;2023-02-07T04:38:32;22.38;;;15.13;;
21661;SDS011;10992;48.170;8.596;2023-02-07T04:40:59;25.15;;;16.90;;
21661;SDS011;10992;48.170;8.596;2023-02-07T04:43:31;27.23;;;16.92;;
21661;SDS011;10992;48.170;8.596;2023-02-07T04:46:00;23.02;;;15.98;;
21661;SDS011;10992;48.170;8.596;2023-02-07T04:48:29;26.13;;;16.10;;
21661;SDS011;10992;48.170;8.596;2023-02-07T04:50:56;25.67;;;16.02;;
21661;SDS011;10992;48.170;8.596;2023-02-07T04:53:23;26.42;;;16.55;;
21661;SDS011;10992;48.170;8.596;2023-02-07T04:55:51;24.05;;;15.55;;
21661;SDS011;10992;48.170;8.596;2023-02-07T04:58:20;23.30;;;15.52;;
21661;SDS011;10992;48.170;8.596;2023-02-07T05:00:47;23.80;;;15.07;;
21661;SDS011;10992;48.170;8.596;2023-02-07T05:03:15;21.75;;;13.40;;
21661;SDS011;10992;48.170;8.596;2023-02-07T05:05:42;20.73;;;14.13;;
21661;SDS011;10992;48.170;8.596;2023-02-07T05:08:10;21.92;;;14.73;;
21661;SDS011;10992;48.170;8.596;2023-02-07T05:10:38;23.58;;;15.70;;
21661;SDS011;10992;48.170;8.596;2023-02-07T05:13:07;20.95;;;14.32;;
21661;SDS011;10992;48.170;8.596;2023-02-07T05:15:36;24.95;;;15.00;;
21661;SDS011;10992;48.170;8.596;2023-02-07T05:18:03;24.55;;;15.20;;
21661;SDS011;10992;48.170;8.596;2023-02-07T05:20:31;24.13;;;15.57;;
21661;SDS011;10992;48.170;8.596;2023-02-07T05:22:58;24.70;;;16.40;;
21661;SDS011;10992;48.170;8.596;2023-02-07T05:25:25;25.20;;;16.60;;
21661;SDS011;10992;48.170;8.596;2023-02-07T05:27:52;24.70;;;16.42;;
21661;SDS011;10992;48.170;8.596;2023-02-07T05:30:19;23.02;;;15.35;;
21661;SDS011;10992;48.170;8.596;2023-02-07T05:32:46;25.95;;;16.55;;
21661;SDS011;10992;48.170;8.596;2023-02-07T05:38:03;30.95;;;17.95;;
21661;SDS011;10992;48.170;8.596;2023-02-07T05:40:33;28.75;;;18.20;;
21661;SDS011;10992;48.170;8.596;2023-02-07T05:43:03;27.20;;;17.45;;
21661;SDS011;10992;48.170;8.596;2023-02-07T05:45:33;32.15;;;18.20;;
21661;SDS011;10992;48.170;8.596;2023-02-07T05:48:02;28.63;;;18.00;;
21661;SDS011;10992;48.170;8.596;2023-02-07T05:50:29;29.40;;;18.80;;
21661;SDS011;10992;48.170;8.596;2023-02-07T05:53:07;30.33;;;17.77;;
21661;SDS011;10992;48.170;8.596;2023-02-07T05:55:35;32.60;;;19.58;;
21661;SDS011;10992;48.170;8.596;2023-02-07T05:58:03;32.13;;;19.00;;
21661;SDS011;10992;48.170;8.596;2023-02-07T06:00:31;32.15;;;19.13;;
21661;SDS011;10992;48.170;8.596;2023-02-07T06:02:58;33.08;;;20.20;;
21661;SDS011;10992;48.170;8.596;2023-02-07T06:05:25;29.98;;;18.35;;
21661;SDS011;10992;48.170;8.596;2023-02-07T06:07:57;31.70;;;19.25;;
21661;SDS011;10992;48.170;8.596;2023-02-07T06:10:24;36.15;;;20.05;;
21661;SDS011;10992;48.170;8.596;2023-02-07T06:12:51;32.45;;;20.77;;
21661;SDS011;10992;48.170;8.596;2023-02-07T06:15:18;32.35;;;20.80;;
21661;SDS011;10992;48.170;8.596;2023-02-07T06:17:45;31.35;;;19.63;;
21661;SDS011;10992;48.170;8.596;2023-02-07T06:20:13;34.83;;;20.65;;
21661;SDS011;10992;48.170;8.596;2023-02-07T06:22:40;31.13;;;19.08;;
21661;SDS011;10992;48.170;8.596;2023-02-07T06:25:08;36.97;;;20.58;;
21661;SDS011;10992;48.170;8.596;2023-02-07T06:27:38;40.50;;;22.08;;
21661;SDS011;10992;48.170;8.596;2023-02-07T06:30:06;53.15;;;22.85;;
21661;SDS011;10992;48.170;8.596;2023-02-07T06:32:34;45.53;;;23.58;;
21661;SDS011;10992;48.170;8.596;2023-02-07T06:35:02;41.72;;;23.95;;
21661;SDS011;10992;48.170;8.596;2023-02-07T06:37:30;43.13;;;23.25;;
21661;SDS011;10992;48.170;8.596;2023-02-07T06:39:57;36.42;;;23.45;;
21661;SDS011;10992;48.170;8.596;2023-02-07T06:42:24;35.10;;;21.55;;
21661;SDS011;10992;48.170;8.596;2023-02-07T06:44:51;35.25;;;21.90;;
21661;SDS011;10992;48.170;8.596;2023-02-07T06:47:17;38.83;;;21.75;;
21661;SDS011;10992;48.170;8.596;2023-02-07T06:49:46;34.20;;;20.73;;
21661;SDS011;10992;48.170;8.596;2023-02-07T06:52:13;35.90;;;21.52;;
21661;SDS011;10992;48.170;8.596;2023-02-07T06:54:39;32.45;;;20.77;;
21661;SDS011;10992;48.170;8.596;2023-02-07T06:57:09;37.55;;;21.55;;
21661;SDS011;10992;48.170;8.596;2023-02-07T06:59:36;39.10;;;22.67;;
21661;SDS011;10992;48.170;8.596;2023-02-07T07:02:03;37.42;;;23.42;;
21661;SDS011;10992;48.170;8.596;2023-02-07T07:04:30;34.67;;;22.70;;
21661;SDS011;10992;48.170;8.596;2023-02-07T07:06:57;41.28;;;23.73;;
21661;SDS011;10992;48.170;8.596;2023-02-07T07:09:24;42.28;;;23.95;;
21661;SDS011;10992;48.170;8.596;2023-02-07T07:11:51;38.63;;;21.48;;
21661;SDS011;10992;48.170;8.596;2023-02-07T07:14:18;40.83;;;22.63;;
21661;SDS011;10992;48.170;8.596;2023-02-07T07:16:45;46.03;;;25.55;;
21661;SDS011;10992;48.170;8.596;2023-02-07T07:19:12;47.35;;;25.95;;
21661;SDS011;10992;48.170;8.596;2023-02-07T07:21:39;52.72;;;29.05;;
21661;SDS011;10992;48.170;8.596;2023-02-07T07:24:06;52.90;;;28.33;;
21661;SDS011;10992;48.170;8.596;2023-02-07T07:26:33;44.00;;;25.40;;
21661;SDS011;10992;48.170;8.596;2023-02-07T07:29:14;44.95;;;24.58;;
21661;SDS011;10992;48.170;8.596;2023-02-07T07:31:41;51.70;;;29.13;;
21661;SDS011;10992;48.170;8.596;2023-02-07T07:34:08;50.08;;;28.08;;
21661;SDS011;10992;48.170;8.596;2023-02-07T07:36:36;42.53;;;25.77;;
21661;SDS011;10992;48.170;8.596;2023-02-07T07:39:03;34.00;;;22.90;;
21661;SDS011;10992;48.170;8.596;2023-02-07T07:41:31;29.63;;;19.55;;
21661;SDS011;10992;48.170;8.596;2023-02-07T07:43:58;27.73;;;18.80;;
21661;SDS011;10992;48.170;8.596;2023-02-07T07:46:26;20.83;;;14.45;;
21661;SDS011;10992;48.170;8.596;2023-02-07T07:48:55;15.82;;;12.00;;
21661;SDS011;10992;48.170;8.596;2023-02-07T07:51:21;16.83;;;11.18;;
21661;SDS011;10992;48.170;8.596;2023-02-07T07:53:48;15.52;;;10.80;;
21661;SDS011;10992;48.170;8.596;2023-02-07T07:56:15;14.38;;;10.18;;
21661;SDS011;10992;48.170;8.596;2023-02-07T07:58:42;16.65;;;11.45;;
21661;SDS011;10992;48.170;8.596;2023-02-07T08:01:09;14.35;;;11.23;;
21661;SDS011;10992;48.170;8.596;2023-02-07T08:03:36;17.02;;;12.27;;
21661;SDS011;10992;48.170;8.596;2023-02-07T08:06:03;16.17;;;11.18;;
21661;SDS011;10992;48.170;8.596;2023-02-07T08:08:31;15.45;;;10.98;;
21661;SDS011;10992;48.170;8.596;2023-02-07T08:11:02;17.23;;;12.98;;
21661;SDS011;10992;48.170;8.596;2023-02-07T08:13:31;14.70;;;11.93;;
21661;SDS011;10992;48.170;8.596;2023-02-07T08:15:59;18.98;;;12.27;;
21661;SDS011;10992;48.170;8.596;2023-02-07T08:18:26;17.15;;;11.25;;
21661;SDS011;10992;48.170;8.596;2023-02-07T08:20:54;16.58;;;11.73;;
21661;SDS011;10992;48.170;8.596;2023-02-07T08:23:21;15.32;;;12.02;;
21661;SDS011;10992;48.170;8.596;2023-02-07T08:25:48;12.80;;;10.80;;
21661;SDS011;10992;48.170;8.596;2023-02-07T08:28:15;14.95;;;11.85;;
21661;SDS011;10992;48.170;8.596;2023-02-07T08:30:42;17.90;;;13.75;;
21661;SDS011;10992;48.170;8.596;2023-02-07T08:33:13;13.52;;;11.02;;
21661;SDS011;10992;48.170;8.596;2023-02-07T08:35:40;21.08;;;15.40;;
21661;SDS011;10992;48.170;8.596;2023-02-07T08:38:08;17.77;;;13.20;;
21661;SDS011;10992;48.170;8.596;2023-02-07T08:40:35;16.08;;;13.30;;
21661;SDS011;10992;48.170;8.596;2023-02-07T08:43:03;12.30;;;10.52;;
21661;SDS011;10992;48.170;8.596;2023-02-07T08:45:32;14.48;;;12.00;;
21661;SDS011;10992;48.170;8.596;2023-02-07T08:48:00;14.55;;;11.82;;
21661;SDS011;10992;48.170;8.596;2023-02-07T08:50:27;13.80;;;10.05;;
21661;SDS011;10992;48.170;8.596;2023-02-07T08:52:53;12.98;;;10.80;;
21661;SDS011;10992;48.170;8.596;2023-02-07T08:55:20;13.60;;;11.65;;
21661;SDS011;10992;48.170;8.596;2023-02-07T08:57:47;13.63;;;11.10;;
21661;SDS011;10992;48.170;8.596;2023-02-07T09:00:14;13.00;;;10.93;;
21661;SDS011;10992;48.170;8.596;2023-02-07T09:02:42;14.43;;;11.80;;
21661;SDS011;10992;48.170;8.596;2023-02-07T09:05:30;14.55;;;11.73;;
21661;SDS011;10992;48.170;8.596;2023-02-07T09:08:00;16.00;;;11.68;;
21661;SDS011;10992;48.170;8.596;2023-02-07T09:10:29;15.40;;;11.82;;
21661;SDS011;10992;48.170;8.596;2023-02-07T09:12:56;16.70;;;12.10;;
21661;SDS011;10992;48.170;8.596;2023-02-07T09:15:23;15.63;;;11.68;;
21661;SDS011;10992;48.170;8.596;2023-02-07T09:17:51;13.60;;;10.95;;
21661;SDS011;10992;48.170;8.596;2023-02-07T09:20:18;14.90;;;10.85;;
21661;SDS011;10992;48.170;8.596;2023-02-07T09:22:45;14.70;;;11.52;;
21661;SDS011;10992;48.170;8.596;2023-02-07T09:25:31;16.10;;;11.57;;
21661;SDS011;10992;48.170;8.596;2023-02-07T09:27:58;12.65;;;10.15;;
21661;SDS011;10992;48.170;8.596;2023-02-07T09:30:25;14.65;;;10.85;;
21661;SDS011;10992;48.170;8.596;2023-02-07T09:32:52;14.98;;;11.45;;
21661;SDS011;10992;48.170;8.596;2023-02-07T09:35:19;13.25;;;10.52;;
21661;SDS011;10992;48.170;8.596;2023-02-07T09:37:46;14.18;;;11.23;;
21661;SDS011;10992;48.170;8.596;2023-02-07T09:40:16;11.82;;;9.80;;
21661;SDS011;10992;48.170;8.596;2023-02-07T09:42:57;13.40;;;10.93;;
21661;SDS011;10992;48.170;8.596;2023-02-07T09:45:46;17.13;;;11.85;;
21661;SDS011;10992;48.170;8.596;2023-02-07T09:48:24;13.52;;;10.90;;
21661;SDS011;10992;48.170;8.596;2023-02-07T09:50:56;11.85;;;10.30;;
21661;SDS011;10992;48.170;8.596;2023-02-07T09:53:33;13.77;;;10.95;;
21661;SDS011;10992;48.170;8.596;2023-02-07T09:56:15;13.70;;;10.43;;
21661;SDS011;10992;48.170;8.596;2023-02-07T09:58:59;15.15;;;10.82;;
21661;SDS011;10992;48.170;8.596;2023-02-07T10:01:46;12.88;;;10.32;;
21661;SDS011;10992;48.170;8.596;2023-02-07T10:06:49;11.40;;;10.20;;
21661;SDS011;10992;48.170;8.596;2023-02-07T10:09:30;14.02;;;10.70;;
21661;SDS011;10992;48.170;8.596;2023-02-07T10:14:39;14.85;;;11.50;;
21661;SDS011;10992;48.170;8.596;2023-02-07T10:25:53;14.40;;;10.35;;
21661;SDS011;10992;48.170;8.596;2023-02-07T10:31:01;14.13;;;10.00;;
21661;SDS011;10992;48.170;8.596;2023-02-07T10:33:31;13.43;;;11.05;;
21661;SDS011;10992;48.170;8.596;2023-02-07T10:36:04;13.02;;;10.63;;
21661;SDS011;10992;48.170;8.596;2023-02-07T10:38:43;13.77;;;10.73;;
21661;SDS011;10992;48.170;8.596;2023-02-07T10:41:34;12.23;;;10.15;;
21661;SDS011;10992;48.170;8.596;2023-02-07T10:44:17;12.98;;;9.70;;
21661;SDS011;10992;48.170;8.596;2023-02-07T10:46:49;12.55;;;10.60;;
21661;SDS011;10992;48.170;8.596;2023-02-07T10:49:25;12.68;;;9.90;;
21661;SDS011;10992;48.170;8.596;2023-02-07T10:51:54;13.43;;;10.10;;
21661;SDS011;10992;48.170;8.596;2023-02-07T10:54:23;13.07;;;10.02;;
21661;SDS011;10992;48.170;8.596;2023-02-07T10:56:51;12.88;;;10.38;;
21661;SDS011;10992;48.170;8.596;2023-02-07T10:59:32;13.20;;;11.07;;
21661;SDS011;10992;48.170;8.596;2023-02-07T11:10:49;13.10;;;10.07;;
21661;SDS011;10992;48.170;8.596;2023-02-07T11:13:18;13.50;;;10.43;;
21661;SDS011;10992;48.170;8.596;2023-02-07T11:21:04;11.75;;;10.20;;
21661;SDS011;10992;48.170;8.596;2023-02-07T11:23:46;13.80;;;9.57;;
21661;SDS011;10992;48.170;8.596;2023-02-07T11:26:18;13.98;;;10.73;;
21661;SDS011;10992;48.170;8.596;2023-02-07T11:28:51;14.57;;;11.10;;
21661;SDS011;10992;48.170;8.596;2023-02-07T11:31:23;13.93;;;11.30;;
21661;SDS011;10992;48.170;8.596;2023-02-07T11:34:25;17.10;;;12.25;;
21661;SDS011;10992;48.170;8.596;2023-02-07T11:36:54;13.00;;;10.40;;
21661;SDS011;10992;48.170;8.596;2023-02-07T11:39:33;14.27;;;11.60;;
21661;SDS011;10992;48.170;8.596;2023-02-07T11:42:00;12.43;;;10.35;;
21661;SDS011;10992;48.170;8.596;2023-02-07T11:44:29;14.82;;;10.63;;
21661;SDS011;10992;48.170;8.596;2023-02-07T11:46:57;12.45;;;10.35;;
21661;SDS011;10992;48.170;8.596;2023-02-07T11:49:51;17.95;;;11.02;;
21661;SDS011;10992;48.170;8.596;2023-02-07T11:52:19;13.27;;;11.13;;
21661;SDS011;10992;48.170;8.596;2023-02-07T11:54:49;12.68;;;10.35;;
21661;SDS011;10992;48.170;8.596;2023-02-07T11:57:18;12.75;;;11.15;;
21661;SDS011;10992;48.170;8.596;2023-02-07T12:00:00;13.63;;;10.77;;
21661;SDS011;10992;48.170;8.596;2023-02-07T12:02:44;14.32;;;11.40;;
21661;SDS011;10992;48.170;8.596;2023-02-07T12:07:49;12.85;;;10.82;;
21661;SDS011;10992;48.170;8.596;2023-02-07T12:10:20;14.38;;;9.93;;
21661;SDS011;10992;48.170;8.596;2023-02-07T12:12:53;13.40;;;11.80;;
21661;SDS011;10992;48.170;8.596;2023-02-07T12:15:31;14.85;;;12.10;;
21661;SDS011;10992;48.170;8.596;2023-02-07T12:20:59;14.70;;;11.85;;
21661;SDS011;10992;48.170;8.596;2023-02-07T12:23:40;14.30;;;11.25;;
21661;SDS011;10992;48.170;8.596;2023-02-07T12:26:20;15.60;;;11.70;;
21661;SDS011;10992;48.170;8.596;2023-02-07T12:34:31;14.65;;;10.75;;
21661;SDS011;10992;48.170;8.596;2023-02-07T12:37:13;14.15;;;10.88;;
21661;SDS011;10992;48.170;8.596;2023-02-07T12:42:46;13.98;;;10.55;;
21661;SDS011;10992;48.170;8.596;2023-02-07T12:45:28;14.77;;;10.95;;
21661;SDS011;10992;48.170;8.596;2023-02-07T12:48:05;13.10;;;11.70;;
21661;SDS011;10992;48.170;8.596;2023-02-07T12:50:52;14.27;;;11.20;;
21661;SDS011;10992;48.170;8.596;2023-02-07T12:53:53;12.68;;;11.07;;
21661;SDS011;10992;48.170;8.596;2023-02-07T12:56:37;12.15;;;10.85;;
21661;SDS011;10992;48.170;8.596;2023-02-07T12:59:19;16.63;;;11.77;;
21661;SDS011;10992;48.170;8.596;2023-02-07T13:05:08;15.20;;;10.57;;
21661;SDS011;10992;48.170;8.596;2023-02-07T13:07:44;14.95;;;10.35;;
21661;SDS011;10992;48.170;8.596;2023-02-07T13:21:21;13.30;;;10.57;;
21661;SDS011;10992;48.170;8.596;2023-02-07T13:23:49;12.13;;;10.23;;
21661;SDS011;10992;48.170;8.596;2023-02-07T13:26:17;12.02;;;10.73;;
21661;SDS011;10992;48.170;8.596;2023-02-07T13:28:57;14.07;;;10.82;;
21661;SDS011;10992;48.170;8.596;2023-02-07T13:34:23;13.95;;;9.85;;
21661;SDS011;10992;48.170;8.596;2023-02-07T13:36:52;11.48;;;9.70;;
21661;SDS011;10992;48.170;8.596;2023-02-07T13:39:35;12.73;;;10.98;;
21661;SDS011;10992;48.170;8.596;2023-02-07T13:42:14;12.60;;;9.65;;
21661;SDS011;10992;48.170;8.596;2023-02-07T13:55:39;15.13;;;10.85;;
21661;SDS011;10992;48.170;8.596;2023-02-07T14:03:59;12.88;;;10.27;;
21661;SDS011;10992;48.170;8.596;2023-02-07T14:11:47;14.27;;;10.77;;
21661;SDS011;10992;48.170;8.596;2023-02-07T14:16:58;12.45;;;9.88;;
21661;SDS011;10992;48.170;8.596;2023-02-07T14:20:18;13.63;;;10.25;;
21661;SDS011;10992;48.170;8.596;2023-02-07T14:22:21;10.98;;;9.82;;
21661;SDS011;10992;48.170;8.596;2023-02-07T14:27:33;15.65;;;10.20;;
21661;SDS011;10992;48.170;8.596;2023-02-07T14:41:48;12.10;;;9.80;;
21661;SDS011;10992;48.170;8.596;2023-02-07T14:46:53;13.10;;;9.77;;
21661;SDS011;10992;48.170;8.596;2023-02-07T14:49:37;10.90;;;9.45;;
21661;SDS011;10992;48.170;8.596;2023-02-07T14:52:13;10.85;;;9.32;;
21661;SDS011;10992;48.170;8.596;2023-02-07T14:54:49;13.07;;;9.68;;
21661;SDS011;10992;48.170;8.596;2023-02-07T14:58:03;12.15;;;9.30;;
21661;SDS011;10992;48.170;8.596;2023-02-07T15:00:22;11.82;;;9.05;;
21661;SDS011;10992;48.170;8.596;2023-02-07T15:03:00;11.82;;;9.32;;
21661;SDS011;10992;48.170;8.596;2023-02-07T15:05:32;11.15;;;8.43;;
21661;SDS011;10992;48.170;8.596;2023-02-07T15:08:22;11.77;;;8.82;;
21661;SDS011;10992;48.170;8.596;2023-02-07T15:11:07;11.00;;;8.32;;
21661;SDS011;10992;48.170;8.596;2023-02-07T15:13:42;11.15;;;8.35;;
21661;SDS011;10992;48.170;8.596;2023-02-07T15:16:11;9.93;;;7.88;;
21661;SDS011;10992;48.170;8.596;2023-02-07T15:18:44;10.10;;;7.50;;
21661;SDS011;10992;48.170;8.596;2023-02-07T15:21:16;10.13;;;8.02;;
21661;SDS011;10992;48.170;8.596;2023-02-07T15:26:31;8.63;;;7.10;;
21661;SDS011;10992;48.170;8.596;2023-02-07T15:29:01;9.25;;;7.38;;
21661;SDS011;10992;48.170;8.596;2023-02-07T15:31:31;9.75;;;7.40;;
21661;SDS011;10992;48.170;8.596;2023-02-07T15:34:05;11.02;;;8.35;;
21661;SDS011;10992;48.170;8.596;2023-02-07T15:36:39;9.02;;;7.78;;
21661;SDS011;10992;48.170;8.596;2023-02-07T15:39:27;9.75;;;8.07;;
21661;SDS011;10992;48.170;8.596;2023-02-07T15:41:55;10.55;;;8.32;;
21661;SDS011;10992;48.170;8.596;2023-02-07T15:44:24;13.57;;;10.13;;
21661;SDS011;10992;48.170;8.596;2023-02-07T15:46:57;11.20;;;8.90;;
21661;SDS011;10992;48.170;8.596;2023-02-07T15:52:21;12.07;;;8.73;;
21661;SDS011;10992;48.170;8.596;2023-02-07T15:54:54;12.13;;;8.93;;
21661;SDS011;10992;48.170;8.596;2023-02-07T15:57:29;12.95;;;10.02;;
21661;SDS011;10992;48.170;8.596;2023-02-07T16:00:00;11.55;;;9.20;;
21661;SDS011;10992;48.170;8.596;2023-02-07T16:02:53;9.52;;;7.93;;
21661;SDS011;10992;48.170;8.596;2023-02-07T16:05:26;12.00;;;9.10;;
21661;SDS011;10992;48.170;8.596;2023-02-07T16:07:58;13.05;;;8.93;;
21661;SDS011;10992;48.170;8.596;2023-02-07T16:13:17;10.15;;;8.43;;
21661;SDS011;10992;48.170;8.596;2023-02-07T16:16:21;11.32;;;8.40;;
21661;SDS011;10992;48.170;8.596;2023-02-07T16:18:48;13.30;;;8.95;;
21661;SDS011;10992;48.170;8.596;2023-02-07T16:23:49;14.50;;;10.13;;
21661;SDS011;10992;48.170;8.596;2023-02-07T16:26:20;21.98;;;13.25;;
21661;SDS011;10992;48.170;8.596;2023-02-07T16:28:50;12.30;;;9.45;;
21661;SDS011;10992;48.170;8.596;2023-02-07T16:31:17;11.70;;;8.90;;
21661;SDS011;10992;48.170;8.596;2023-02-07T16:33:44;11.02;;;8.90;;
21661;SDS011;10992;48.170;8.596;2023-02-07T16:36:12;11.48;;;8.90;;
21661;SDS011;10992;48.170;8.596;2023-02-07T16:38:41;16.00;;;9.98;;
21661;SDS011;10992;48.170;8.596;2023-02-07T16:43:50;13.73;;;11.55;;
21661;SDS011;10992;48.170;8.596;2023-02-07T16:46:17;14.48;;;11.30;;
21661;SDS011;10992;48.170;8.596;2023-02-07T16:48:44;15.05;;;10.73;;
21661;SDS011;10992;48.170;8.596;2023-02-07T16:51:13;16.48;;;10.40;;
21661;SDS011;10992;48.170;8.596;2023-02-07T16:53:42;12.85;;;10.07;;
21661;SDS011;10992;48.170;8.596;2023-02-07T16:56:10;14.20;;;10.07;;
21661;SDS011;10992;48.170;8.596;2023-02-07T16:58:39;13.45;;;10.25;;
21661;SDS011;10992;48.170;8.596;2023-02-07T17:01:09;13.90;;;9.82;;
21661;SDS011;10992;48.170;8.596;2023-02-07T17:03:41;15.63;;;10.55;;
21661;SDS011;10992;48.170;8.596;2023-02-07T17:06:11;20.98;;;14.82;;
21661;SDS011;10992;48.170;8.596;2023-02-07T17:08:40;16.33;;;11.25;;
21661;SDS011;10992;48.170;8.596;2023-02-07T17:11:11;21.08;;;13.32;;
21661;SDS011;10992;48.170;8.596;2023-02-07T17:13:42;27.73;;;14.75;;
21661;SDS011;10992;48.170;8.596;2023-02-07T17:16:12;19.52;;;12.02;;
21661;SDS011;10992;48.170;8.596;2023-02-07T17:18:39;15.30;;;10.48;;
21661;SDS011;10992;48.170;8.596;2023-02-07T17:21:07;16.70;;;10.70;;
21661;SDS011;10992;48.170;8.596;2023-02-07T17:23:36;17.92;;;10.88;;
21661;SDS011;10992;48.170;8.596;2023-02-07T17:26:03;16.85;;;12.23;;
21661;SDS011;10992;48.170;8.596;2023-02-07T17:28:34;14.65;;;11.65;;
21661;SDS011;10992;48.170;8.596;2023-02-07T17:31:02;13.80;;;10.52;;